createdAt,value
2023-03-06T06:19:40.788Z,996.47
2023-03-06T06:29:40.699Z,996.43
2023-03-06T06:39:40.795Z,996.27
2023-03-06T06:49:40.869Z,996.29
2023-03-06T06:59:40.880Z,996.25
2023-03-06T07:09:40.761Z,996.36
2023-03-06T07:19:40.813Z,996.25
2023-03-06T07:29:40.655Z,996.35
2023-03-06T07:39:40.744Z,996.34
2023-03-06T07:49:40.921Z,996.22
2023-03-06T07:59:40.745Z,996.22
2023-03-06T08:09:41.047Z,996.20
2023-03-06T08:19:40.920Z,996.19
2023-03-06T08:29:40.982Z,996.19
2023-03-06T08:39:40.943Z,996.33
2023-03-06T08:49:41.029Z,996.23
2023-03-06T08:59:40.925Z,996.32
2023-03-06T09:09:41.117Z,996.37
2023-03-06T09:19:40.974Z,996.23
2023-03-06T09:29:41.170Z,996.32
2023-03-06T09:39:41.122Z,996.35
2023-03-06T09:49:41.199Z,996.36
2023-03-06T09:59:46.420Z,996.11
2023-03-06T10:09:41.010Z,996.12
2023-03-06T10:19:41.085Z,995.94
2023-03-06T10:29:42.192Z,995.94
2023-03-06T10:39:41.212Z,995.85
2023-03-06T10:49:41.068Z,995.92
2023-03-06T10:59:41.085Z,995.92
2023-03-06T11:09:41.066Z,996.05
2023-03-06T11:19:40.990Z,996.12
2023-03-06T11:29:41.267Z,996.41
2023-03-06T11:39:41.084Z,996.71
2023-03-06T11:49:41.166Z,996.97
2023-03-06T11:59:41.222Z,997.07
2023-03-06T12:09:41.291Z,997.32
2023-03-06T12:19:41.245Z,997.05
2023-03-06T12:29:40.992Z,996.98
2023-03-06T12:39:41.055Z,996.90
2023-03-06T12:49:41.226Z,996.83
2023-03-06T12:59:41.211Z,996.77
2023-03-06T13:09:41.147Z,996.74
2023-03-06T13:19:41.335Z,996.62
2023-03-06T13:29:41.192Z,996.65
2023-03-06T13:39:41.212Z,996.47
2023-03-06T13:49:41.212Z,996.40
2023-03-06T13:59:41.294Z,996.30
2023-03-06T14:09:41.085Z,996.41
2023-03-06T14:19:41.314Z,996.27
2023-03-06T14:29:41.187Z,996.18
2023-03-06T14:39:41.329Z,996.08
2023-03-06T14:49:41.153Z,995.93
2023-03-06T14:59:41.269Z,995.79
2023-03-06T15:09:41.284Z,995.87
2023-03-06T15:19:41.293Z,995.86
2023-03-06T15:29:41.367Z,995.79
2023-03-06T15:39:41.329Z,995.79
2023-03-06T15:49:41.587Z,995.80
2023-03-06T15:59:41.233Z,995.80
2023-03-06T16:09:41.451Z,995.77
2023-03-06T16:19:41.258Z,995.72
2023-03-06T16:29:41.305Z,995.72
2023-03-06T16:39:41.407Z,995.74
2023-03-06T16:49:41.430Z,995.81
2023-03-06T16:59:41.332Z,995.72
2023-03-06T17:09:41.600Z,995.80
2023-03-06T17:19:41.559Z,995.75
2023-03-06T17:29:41.358Z,995.86
2023-03-06T17:39:41.286Z,995.88
2023-03-06T17:49:41.419Z,995.74
2023-03-06T17:59:41.421Z,995.66
2023-03-06T18:09:41.220Z,995.77
2023-03-06T18:19:41.329Z,995.73
2023-03-06T18:29:41.599Z,995.71
2023-03-06T18:39:41.669Z,995.63
2023-03-06T18:49:44.122Z,995.56
2023-03-06T18:59:41.660Z,995.43
2023-03-06T19:09:41.969Z,995.23
2023-03-06T19:19:41.828Z,995.12
